Kirkham, United Kingdom
Current Conditions -  °F | °C
As of 10:50 AM on Monday 20 Oct 2014 (Local Time) from EGGP Reporting Station
Rain Showers Rain Showers  
Wind Chill: 54°   Ceiling: 4500
Heat Index: 54°   Visibility: 6mi
Dew Point: 50°   Wind: 9mph
Humidity: 88%   Direction: 240°WSW
Pressure: 29.91"   Gusts: NA
Location:  53.78°N, 2.87°W
Report Text: EGGP 200950Z 24008KT 9999 VCSH FEW030 BKN045 12/10 Q1013
Loading
Personal Weather Stations






























Interactive Weather Map
Tropical Storm Tracking
New forecast layout! Learn more

10-Day Weather Forecast

Advertisements
Track Severe Weather on mobile